Time;durP1;ratioP1;P1;durP2;ratioP2;P2;SDS_P1;SDS_P2;PMS_P1;PMS_P2;Temp;Humidity;BMP_temperature;BMP_pressure;BME280_temperature;BME280_humidity;BME280_pressure;Samples;Min_cycle;Max_cycle;Signal;HPM_P1;HPM_P2
2023/09/24 00:01:52;;;;;;;7.20;3.55;;;;;;;13.58;100.00;102195.44;10422249;28;20110;-68
2023/09/24 00:07:15;;;;;;;4.50;3.10;;;;;;;13.56;100.00;102202.41;10430154;28;20449;-68
2023/09/24 00:12:38;;;;;;;3.70;3.05;;;;;;;13.48;100.00;102200.84;10430124;28;20459;-68
2023/09/24 00:18:00;;;;;;;5.03;2.92;;;;;;;13.41;100.00;102217.44;10427335;28;20500;-68
2023/09/24 00:23:22;;;;;;;3.70;2.80;;;;;;;13.35;100.00;102214.97;10446257;28;20385;-68
2023/09/24 00:28:43;;;;;;;3.95;2.60;;;;;;;13.35;100.00;102220.19;10437557;28;20057;-68
2023/09/24 00:34:05;;;;;;;5.97;3.05;;;;;;;13.25;100.00;102218.63;10440072;28;20045;-68
2023/09/24 00:39:27;;;;;;;4.38;2.55;;;;;;;13.25;100.00;102221.22;10420481;28;20055;-68
2023/09/24 00:44:48;;;;;;;7.28;2.80;;;;;;;13.25;100.00;102231.63;10433317;28;20036;-68
2023/09/24 00:50:10;;;;;;;6.07;2.72;;;;;;;13.19;100.00;102226.53;10429235;28;20053;-69
2023/09/24 00:55:32;;;;;;;3.97;2.60;;;;;;;13.22;100.00;102248.16;10427220;28;20115;-68
2023/09/24 01:00:55;;;;;;;6.38;2.63;;;;;;;13.20;100.00;102243.84;10434799;28;20049;-68
2023/09/24 01:06:20;;;;;;;3.58;2.53;;;;;;;13.16;100.00;102242.19;10418555;28;20048;-68
2023/09/24 01:11:42;;;;;;;10.52;2.78;;;;;;;13.08;100.00;102248.38;10429757;28;20033;-68
2023/09/24 01:17:04;;;;;;;4.50;2.63;;;;;;;12.99;99.84;102250.25;10423034;28;20055;-68
2023/09/24 01:22:26;;;;;;;6.40;2.80;;;;;;;12.94;100.00;102255.53;10423656;28;20051;-68
2023/09/24 01:27:48;;;;;;;4.28;2.95;;;;;;;12.86;100.00;102253.94;10436066;28;20060;-68
2023/09/24 01:33:10;;;;;;;3.30;3.00;;;;;;;12.92;100.00;102259.91;10428200;28;20569;-68
2023/09/24 01:38:32;;;;;;;4.80;2.90;;;;;;;12.85;100.00;102273.88;10434506;28;20401;-68
2023/09/24 01:43:53;;;;;;;3.30;3.00;;;;;;;12.86;100.00;102280.78;10420809;28;20064;-68
2023/09/24 01:49:17;;;;;;;5.28;3.00;;;;;;;12.82;100.00;102273.03;10419222;28;20059;-68
2023/09/24 01:54:39;;;;;;;6.93;3.10;;;;;;;12.88;100.00;102284.22;10424880;28;20041;-68
2023/09/24 02:00:21;;;;;;;4.95;3.15;;;;;;;12.90;100.00;102287.66;10430361;28;20061;-68
2023/09/24 02:05:42;;;;;;;9.77;3.78;;;;;;;12.82;100.00;102291.22;10433476;28;20528;-68
2023/09/24 02:11:04;;;;;;;6.60;3.10;;;;;;;12.81;100.00;102292.97;10418161;28;20512;-68
2023/09/24 02:16:26;;;;;;;4.70;3.13;;;;;;;12.72;100.00;102303.53;10421508;28;20056;-68
2023/09/24 02:21:48;;;;;;;4.28;3.53;;;;;;;12.67;100.00;102300.09;10424200;28;20139;-68
2023/09/24 02:27:11;;;;;;;4.32;3.50;;;;;;;12.66;100.00;102307.94;10423892;28;20397;-68
2023/09/24 02:32:32;;;;;;;4.97;3.63;;;;;;;12.61;100.00;102300.22;10421609;28;20045;-69
2023/09/24 02:37:55;;;;;;;5.28;3.78;;;;;;;12.55;100.00;102310.69;10433514;28;20620;-68
2023/09/24 02:43:16;;;;;;;6.55;3.63;;;;;;;12.56;100.00;102322.78;10431970;28;20049;-68
2023/09/24 02:48:39;;;;;;;4.20;3.83;;;;;;;12.56;100.00;102316.75;10437056;28;20049;-68
2023/09/24 02:54:01;;;;;;;4.40;4.00;;;;;;;12.52;100.00;102315.94;10423094;28;20055;-69
2023/09/24 02:59:23;;;;;;;4.82;3.90;;;;;;;12.52;100.00;102321.13;10433608;28;20055;-68
2023/09/24 03:04:44;;;;;;;5.30;3.67;;;;;;;12.52;100.00;102325.44;10429601;28;20052;-68
2023/09/24 03:10:09;;;;;;;4.45;3.33;;;;;;;12.53;100.00;102328.03;10420756;28;20500;-68
2023/09/24 03:15:31;;;;;;;3.75;3.45;;;;;;;12.43;100.00;102330.78;10416959;28;20100;-68
2023/09/24 03:20:54;;;;;;;5.88;3.75;;;;;;;12.33;100.00;102340.41;10422887;28;20049;-68
2023/09/24 03:26:16;;;;;;;4.40;3.70;;;;;;;12.30;100.00;102335.28;10445030;28;20080;-68
2023/09/24 03:31:38;;;;;;;5.30;3.75;;;;;;;12.32;100.00;102349.09;10429287;28;20037;-68
2023/09/24 03:36:59;;;;;;;7.93;4.18;;;;;;;12.29;100.00;102354.31;10412533;28;23076;-68
2023/09/24 03:42:21;;;;;;;8.35;4.03;;;;;;;12.24;100.00;102358.69;10451201;28;20152;-67
2023/09/24 03:47:43;;;;;;;5.93;4.35;;;;;;;12.22;100.00;102360.44;10435405;28;20061;-68
2023/09/24 03:53:05;;;;;;;21.00;4.35;;;;;;;12.21;100.00;102368.25;10429642;28;20102;-68
2023/09/24 03:58:27;;;;;;;16.33;4.88;;;;;;;12.17;100.00;102367.44;10430257;28;20156;-68
2023/09/24 04:03:49;;;;;;;14.95;4.75;;;;;;;12.09;100.00;102377.03;10426502;28;20710;-68
2023/09/24 04:09:12;;;;;;;38.78;5.30;;;;;;;12.05;100.00;102375.34;10452364;28;20107;-68
2023/09/24 04:14:34;;;;;;;26.58;4.78;;;;;;;12.02;100.00;102370.22;10423549;28;20049;-68
2023/09/24 04:19:57;;;;;;;25.45;4.30;;;;;;;11.95;100.00;102384.13;10430399;28;20382;-68
2023/09/24 04:25:21;;;;;;;23.05;4.10;;;;;;;11.92;100.00;102394.53;10432665;28;20485;-68
2023/09/24 04:30:43;;;;;;;7.50;4.20;;;;;;;11.89;100.00;102407.53;10428956;28;20056;-68
2023/09/24 04:36:09;;;;;;;49.75;4.57;;;;;;;11.83;100.00;102410.19;10410377;28;20068;-68
2023/09/24 04:41:31;;;;;;;40.08;4.70;;;;;;;11.77;100.00;102425.81;10431275;28;20052;-68
2023/09/24 04:46:54;;;;;;;61.38;4.75;;;;;;;11.75;100.00;102424.97;10426141;28;20888;-68
2023/09/24 04:52:16;;;;;;;46.30;5.20;;;;;;;11.65;100.00;102415.53;10409507;28;20146;-69
2023/09/24 04:57:38;;;;;;;53.50;4.72;;;;;;;11.70;100.00;102434.53;10438079;28;20489;-68
2023/09/24 05:02:59;;;;;;;33.70;4.80;;;;;;;11.74;100.00;102431.88;10432921;28;20037;-68
2023/09/24 05:08:21;;;;;;;44.95;5.03;;;;;;;11.75;100.00;102432.75;10415364;28;20055;-68
2023/09/24 05:13:44;;;;;;;47.75;5.30;;;;;;;11.76;100.00;102447.41;10423309;28;20391;-68
2023/09/24 05:19:07;;;;;;;40.50;4.88;;;;;;;11.74;100.00;102447.44;10421590;28;20067;-69
2023/09/24 05:24:32;;;;;;;29.65;5.13;;;;;;;11.82;100.00;102453.44;10435437;28;20053;-68
2023/09/24 05:29:54;;;;;;;47.35;5.88;;;;;;;11.87;100.00;102454.22;10423471;28;20071;-68
2023/09/24 05:35:15;;;;;;;47.30;5.53;;;;;;;11.89;100.00;102469.78;10416652;28;20063;-68
2023/09/24 05:40:39;;;;;;;41.05;6.30;;;;;;;11.97;100.00;102465.41;10423135;28;21895;-69
2023/09/24 05:46:01;;;;;;;45.72;6.30;;;;;;;12.12;100.00;102481.66;10434834;28;20136;-68
2023/09/24 05:51:23;;;;;;;52.80;6.88;;;;;;;12.16;100.00;102472.09;10436960;28;20526;-68
2023/09/24 05:56:45;;;;;;;53.75;7.15;;;;;;;12.19;100.00;102482.47;10433622;28;20064;-68
2023/09/24 06:02:06;;;;;;;33.83;7.55;;;;;;;12.31;100.00;102495.31;10423774;28;20041;-69
2023/09/24 06:07:28;;;;;;;28.83;7.80;;;;;;;12.36;100.00;102501.31;10418653;28;20057;-68
2023/09/24 06:12:50;;;;;;;27.45;7.78;;;;;;;12.42;100.00;102495.19;10419255;28;20043;-68
2023/09/24 06:18:12;;;;;;;34.90;8.02;;;;;;;12.46;100.00;102492.56;10423975;28;20493;-68
2023/09/24 06:23:34;;;;;;;28.88;8.40;;;;;;;12.48;100.00;102503.81;10420532;28;20056;-69
2023/09/24 06:28:56;;;;;;;33.72;8.40;;;;;;;12.54;100.00;102506.34;10420809;28;20124;-68
2023/09/24 06:34:35;;;;;;;15.55;7.90;;;;;;;12.64;100.00;102523.53;10417966;28;20048;-69
2023/09/24 06:39:57;;;;;;;15.70;8.80;;;;;;;12.72;100.00;102532.09;10427657;28;20199;-68
2023/09/24 06:45:19;;;;;;;15.27;8.88;;;;;;;12.75;100.00;102534.66;10409782;28;20033;-68
2023/09/24 06:50:41;;;;;;;15.52;9.30;;;;;;;12.81;100.00;102531.13;10430923;28;20061;-68
2023/09/24 06:56:07;;;;;;;15.95;9.80;;;;;;;12.89;100.00;102540.53;10418952;28;20053;-68
2023/09/24 07:01:29;;;;;;;13.70;9.63;;;;;;;12.95;100.00;102540.47;10436570;28;20053;-68
2023/09/24 07:06:51;;;;;;;28.30;10.15;;;;;;;12.97;100.00;102548.25;10413194;28;20049;-68
2023/09/24 07:12:13;;;;;;;18.02;10.77;;;;;;;12.99;100.00;102547.34;10408625;28;20043;-68
2023/09/24 07:17:35;;;;;;;16.90;10.63;;;;;;;13.06;100.00;102559.41;10419126;28;20704;-68
2023/09/24 07:22:57;;;;;;;18.50;10.82;;;;;;;13.13;100.00;102566.25;10419012;28;20136;-68
2023/09/24 07:28:21;;;;;;;18.00;11.57;;;;;;;13.28;100.00;102570.41;10432047;28;20417;-68
2023/09/24 07:33:42;;;;;;;21.15;12.40;;;;;;;13.32;100.00;102577.28;10416030;28;20044;-68
2023/09/24 07:39:04;;;;;;;24.52;13.88;;;;;;;13.39;100.00;102572.84;10415226;28;20044;-69
2023/09/24 07:44:26;;;;;;;22.27;13.25;;;;;;;13.50;100.00;102581.38;10421574;28;20132;-69
2023/09/24 07:49:48;;;;;;;24.63;13.90;;;;;;;13.63;100.00;102577.72;10435227;28;20055;-69
2023/09/24 07:55:10;;;;;;;23.50;13.70;;;;;;;13.77;100.00;102581.00;10422694;28;20041;-69
2023/09/24 08:00:31;;;;;;;26.30;14.82;;;;;;;13.78;100.00;102593.09;10439791;28;20049;-69
2023/09/24 08:05:53;;;;;;;21.65;13.90;;;;;;;13.85;100.00;102589.53;10425804;28;20047;-68
2023/09/24 08:11:15;;;;;;;26.85;15.35;;;;;;;13.94;100.00;102605.88;10429510;28;20194;-68
2023/09/24 08:16:36;;;;;;;25.33;14.90;;;;;;;13.94;100.00;102602.41;10427625;28;20057;-69
2023/09/24 08:21:58;;;;;;;27.23;15.85;;;;;;;13.99;100.00;102613.63;10429665;28;20120;-68
2023/09/24 08:27:20;;;;;;;26.67;16.13;;;;;;;14.03;100.00;102613.53;10429092;28;20049;-68
2023/09/24 08:32:42;;;;;;;30.45;16.27;;;;;;;14.14;100.00;102628.97;10439185;28;20041;-69
2023/09/24 08:38:04;;;;;;;22.52;15.20;;;;;;;14.24;100.00;102620.16;10421430;28;20060;-69
2023/09/24 08:43:27;;;;;;;27.85;15.88;;;;;;;14.32;100.00;102628.72;10442451;28;20045;-69
2023/09/24 08:48:52;;;;;;;22.83;13.77;;;;;;;14.44;99.23;102628.53;10422183;28;20669;-68
2023/09/24 08:54:14;;;;;;;23.85;13.27;;;;;;;14.53;99.64;102625.75;10423446;28;20048;-69
2023/09/24 08:59:36;;;;;;;19.63;12.05;;;;;;;14.56;98.11;102633.50;10427477;28;20068;-69
2023/09/24 09:04:59;;;;;;;15.25;11.10;;;;;;;14.67;95.92;102634.19;10407422;28;20048;-68
2023/09/24 09:10:25;;;;;;;17.13;10.55;;;;;;;14.80;95.81;102633.09;10429777;28;20199;-69
2023/09/24 09:16:02;;;;;;;14.85;9.75;;;;;;;14.92;94.64;102632.84;10411888;28;20049;-68
2023/09/24 09:21:27;;;;;;;15.35;9.18;;;;;;;15.03;93.48;102633.50;10422417;28;20084;-68
2023/09/24 09:26:57;;;;;;;13.02;8.07;;;;;;;15.13;90.08;102622.91;10432394;28;20048;-67
2023/09/24 09:32:18;;;;;;;15.35;7.70;;;;;;;15.22;89.34;102604.47;10424068;28;20468;-67
2023/09/24 09:37:42;;;;;;;12.90;7.55;;;;;;;15.28;90.23;102605.19;10440075;28;20099;-67
2023/09/24 09:43:06;;;;;;;12.05;6.68;;;;;;;15.42;90.04;102602.34;10438747;28;20070;-68
2023/09/24 09:48:29;;;;;;;10.20;6.43;;;;;;;15.54;87.95;102607.28;10422772;28;20045;-67
2023/09/24 09:53:53;;;;;;;11.45;5.70;;;;;;;15.59;87.57;102608.03;10425157;28;20102;-67
2023/09/24 09:59:16;;;;;;;8.95;4.90;;;;;;;15.68;86.40;102599.97;10425165;28;20114;-68
2023/09/24 10:04:38;;;;;;;6.85;3.85;;;;;;;15.79;85.86;102592.75;10426816;28;20416;-68
2023/09/24 10:10:00;;;;;;;7.22;4.13;;;;;;;15.89;84.77;102591.66;10436597;28;20056;-68
2023/09/24 10:15:28;;;;;;;6.93;3.67;;;;;;;16.06;83.44;102592.09;10426379;28;20048;-68
2023/09/24 10:20:50;;;;;;;7.03;3.67;;;;;;;16.21;83.11;102591.75;10439349;28;20057;-68
2023/09/24 10:26:50;;;;;;;5.13;2.78;;;;;;;16.22;81.97;102579.53;10443305;28;20489;-68
2023/09/24 10:32:17;;;;;;;5.10;2.80;;;;;;;16.35;82.43;102560.91;10437729;28;20481;-69
2023/09/24 10:37:57;;;;;;;6.63;2.42;;;;;;;16.35;79.19;102563.53;10434410;28;20076;-69
2023/09/24 10:43:18;;;;;;;7.38;2.42;;;;;;;16.45;80.46;102554.53;10440040;28;20504;-69
2023/09/24 10:48:43;;;;;;;5.03;2.00;;;;;;;16.50;81.70;102560.53;10417258;28;20194;-68
2023/09/24 10:54:15;;;;;;;7.88;1.88;;;;;;;16.53;79.85;102572.66;10434001;28;20056;-69
2023/09/24 10:59:37;;;;;;;6.80;2.30;;;;;;;16.64;79.48;102563.63;10434297;28;20049;-68
2023/09/24 11:05:02;;;;;;;4.03;1.88;;;;;;;16.71;78.60;102553.84;10435024;28;20042;-68
2023/09/24 11:10:25;;;;;;;5.38;1.70;;;;;;;16.95;78.27;102556.66;10422568;28;20049;-68
2023/09/24 11:15:47;;;;;;;5.15;1.50;;;;;;;17.12;75.79;102564.00;10426794;28;20418;-68
2023/09/24 11:21:09;;;;;;;4.55;1.67;;;;;;;17.30;73.58;102558.22;10437798;28;20215;-68
2023/09/24 11:26:31;;;;;;;5.03;1.60;;;;;;;17.31;74.89;102554.69;10424420;28;20073;-67
2023/09/24 11:31:52;;;;;;;4.97;1.30;;;;;;;17.32;76.15;102552.94;10430303;28;20459;-68
2023/09/24 11:37:14;;;;;;;5.65;1.60;;;;;;;17.48;74.01;102552.47;10428241;28;20056;-69
2023/09/24 11:42:41;;;;;;;3.15;1.23;;;;;;;17.44;77.35;102555.19;10440348;28;20195;-68
2023/09/24 11:48:03;;;;;;;4.35;1.30;;;;;;;17.57;76.61;102552.19;10439512;28;20143;-68
2023/09/24 11:53:28;;;;;;;5.82;1.50;;;;;;;17.64;74.18;102548.47;10425672;28;20037;-68
2023/09/24 11:58:49;;;;;;;3.25;1.30;;;;;;;17.85;73.07;102550.41;10425801;28;20137;-68
2023/09/24 12:04:12;;;;;;;6.35;1.10;;;;;;;17.85;75.41;102541.69;10422687;28;20041;-67
2023/09/24 12:09:33;;;;;;;8.93;1.27;;;;;;;17.87;72.79;102550.34;10436675;28;20055;-68
2023/09/24 12:14:55;;;;;;;3.47;1.15;;;;;;;17.90;75.87;102538.00;10422673;28;20501;-68
2023/09/24 12:20:18;;;;;;;2.97;1.10;;;;;;;17.83;72.91;102541.75;10419875;28;20142;-69
2023/09/24 12:25:43;;;;;;;4.32;1.27;;;;;;;18.00;75.07;102543.81;10435779;28;20037;-68
2023/09/24 12:31:04;;;;;;;5.10;1.30;;;;;;;17.95;71.78;102525.59;10415045;28;20048;-68
2023/09/24 12:36:29;;;;;;;4.82;1.40;;;;;;;17.95;73.23;102528.22;10423524;28;20049;-68
2023/09/24 12:41:50;;;;;;;5.30;1.58;;;;;;;18.05;69.15;102539.25;10435526;28;20045;-67
2023/09/24 12:47:12;;;;;;;4.35;1.23;;;;;;;18.13;71.31;102541.63;10438099;28;20049;-65
2023/09/24 12:52:41;;;;;;;5.25;1.50;;;;;;;18.39;70.55;102545.06;10435448;28;20057;-68
2023/09/24 12:58:03;;;;;;;3.22;1.35;;;;;;;18.51;69.65;102534.19;10441057;28;20057;-68
2023/09/24 13:03:25;;;;;;;5.43;1.20;;;;;;;18.55;71.77;102514.78;10424113;28;20059;-68
2023/09/24 13:08:47;;;;;;;4.05;1.17;;;;;;;18.58;70.33;102519.06;10423327;28;20836;-68
2023/09/24 13:14:09;;;;;;;5.97;1.30;;;;;;;18.63;72.07;102515.38;10419092;28;20432;-68
2023/09/24 13:19:31;;;;;;;5.57;1.48;;;;;;;18.70;73.00;102518.63;10423284;28;20049;-68
2023/09/24 13:24:53;;;;;;;7.32;1.38;;;;;;;18.78;72.66;102522.69;10428369;28;20485;-68
2023/09/24 13:30:14;;;;;;;4.78;1.40;;;;;;;18.74;70.46;102515.84;10424295;28;20588;-68
2023/09/24 13:35:45;;;;;;;8.45;2.17;;;;;;;18.71;66.50;102515.09;10418831;28;20045;-68
2023/09/24 13:41:11;;;;;;;5.32;1.63;;;;;;;18.72;69.32;102501.94;10436034;28;20547;-69
2023/09/24 13:46:33;;;;;;;6.00;1.77;;;;;;;18.80;72.05;102499.03;10412583;28;20049;-68
2023/09/24 13:51:55;;;;;;;5.72;1.73;;;;;;;18.79;71.28;102492.91;10434270;28;20055;-69
2023/09/24 13:57:16;;;;;;;3.25;1.65;;;;;;;18.77;68.78;102489.50;10430384;28;20356;-69
2023/09/24 14:02:41;;;;;;;4.53;1.73;;;;;;;18.90;70.83;102510.88;10434441;28;20489;-69
2023/09/24 14:13:46;;;;;;;3.15;1.40;;;;;;;18.90;71.55;102493.38;10439546;28;20041;-68
2023/09/24 14:19:08;;;;;;;;;;;;;;;19.04;63.63;102498.94;10415830;28;20580;-69
2023/09/24 14:24:30;;;;;;;3.70;1.48;;;;;;;18.99;71.79;102479.91;10434122;28;19940;-69
2023/09/24 14:29:51;;;;;;;5.97;1.60;;;;;;;19.08;70.58;102483.97;10416995;28;20044;-68
2023/09/24 14:35:13;;;;;;;4.80;1.70;;;;;;;19.12;70.65;102474.19;10426307;28;20150;-68
2023/09/24 14:40:35;;;;;;;4.03;1.60;;;;;;;19.15;71.67;102480.19;10434389;28;20048;-67
2023/09/24 14:45:58;;;;;;;4.32;1.80;;;;;;;19.07;71.52;102474.34;10422628;28;20319;-68
2023/09/24 14:51:20;;;;;;;3.92;1.73;;;;;;;19.04;70.04;102475.31;10430331;28;20059;-68
2023/09/24 14:56:42;;;;;;;2.47;1.50;;;;;;;19.13;71.53;102470.63;10422968;28;20048;-68
2023/09/24 15:02:03;;;;;;;2.92;1.52;;;;;;;19.22;72.10;102475.53;10429610;28;20481;-68
2023/09/24 15:07:26;;;;;;;3.00;1.30;;;;;;;19.42;69.89;102470.38;10427956;28;20053;-68
2023/09/24 15:12:48;;;;;;;6.20;1.65;;;;;;;19.46;69.96;102469.34;10430824;28;20187;-68
2023/09/24 15:18:10;;;;;;;3.85;1.58;;;;;;;19.53;67.55;102473.41;10444735;28;20053;-67
2023/09/24 15:23:32;;;;;;;3.65;1.35;;;;;;;19.49;69.53;102477.06;10429152;28;20061;-67
2023/09/24 15:28:54;;;;;;;8.40;1.20;;;;;;;19.52;68.14;102474.34;10430051;28;20049;-67
2023/09/24 15:34:15;;;;;;;3.33;1.35;;;;;;;19.57;69.12;102468.00;10434576;28;20045;-68
2023/09/24 15:39:37;;;;;;;3.22;1.25;;;;;;;19.68;68.61;102459.66;10440938;28;20163;-67
2023/09/24 15:44:59;;;;;;;4.30;1.40;;;;;;;19.82;68.34;102452.91;10432183;28;20040;-67
2023/09/24 15:50:20;;;;;;;3.58;1.30;;;;;;;19.89;66.72;102453.47;10431014;28;20067;-68
2023/09/24 15:55:44;;;;;;;3.63;1.50;;;;;;;20.01;65.65;102463.50;10408282;28;20045;-67
2023/09/24 16:01:06;;;;;;;3.92;1.30;;;;;;;20.09;67.21;102455.28;10445002;28;20049;-67
2023/09/24 16:06:28;;;;;;;5.00;1.58;;;;;;;20.08;66.79;102457.03;10418092;28;20057;-68
2023/09/24 16:11:50;;;;;;;3.72;1.52;;;;;;;19.81;67.88;102452.97;10434227;28;20051;-68
2023/09/24 16:17:11;;;;;;;5.03;1.60;;;;;;;19.62;67.96;102446.75;10423436;28;20064;-68
2023/09/24 16:22:33;;;;;;;3.22;1.20;;;;;;;19.44;65.97;102451.03;10430330;28;20114;-68
2023/09/24 16:27:55;;;;;;;3.15;1.35;;;;;;;19.29;67.09;102455.97;10429910;28;20171;-68
2023/09/24 16:33:17;;;;;;;2.25;1.20;;;;;;;19.15;71.26;102455.69;10426855;28;20104;-68
2023/09/24 16:38:39;;;;;;;5.45;1.20;;;;;;;19.06;71.30;102465.63;10427852;28;20053;-68
2023/09/24 16:44:00;;;;;;;3.22;1.35;;;;;;;18.90;70.00;102459.25;10441990;28;20076;-68
2023/09/24 16:49:22;;;;;;;4.55;1.25;;;;;;;18.77;71.21;102458.00;10443827;28;20051;-68
2023/09/24 16:54:45;;;;;;;3.28;1.35;;;;;;;18.71;71.70;102458.25;10439186;28;20041;-68
2023/09/24 17:00:09;;;;;;;3.60;1.20;;;;;;;18.58;73.16;102454.38;10428745;28;20052;-68
2023/09/24 17:05:35;;;;;;;5.83;1.37;;;;;;;18.40;74.12;102452.41;10440906;28;20064;-68
2023/09/24 17:10:57;;;;;;;2.80;1.35;;;;;;;18.25;76.14;102463.44;10422926;28;20065;-67
2023/09/24 17:16:19;;;;;;;4.38;1.42;;;;;;;18.11;76.38;102464.84;10428106;28;20041;-68
2023/09/24 17:21:41;;;;;;;4.55;1.60;;;;;;;17.99;76.10;102466.09;10439372;28;20409;-68
2023/09/24 17:27:02;;;;;;;4.65;1.52;;;;;;;17.86;76.35;102470.03;10430805;28;20132;-68
2023/09/24 17:32:24;;;;;;;4.20;1.90;;;;;;;17.76;77.09;102464.25;10430551;28;20853;-68
2023/09/24 17:37:47;;;;;;;4.30;1.92;;;;;;;17.67;77.42;102476.81;10410417;28;20049;-67
2023/09/24 17:43:09;;;;;;;5.03;2.05;;;;;;;17.56;77.53;102471.06;10442697;28;20048;-68
2023/09/24 17:48:31;;;;;;;4.35;2.15;;;;;;;17.46;77.65;102480.09;10411277;28;20059;-68
2023/09/24 17:53:53;;;;;;;5.72;2.10;;;;;;;17.37;78.47;102485.63;10435537;28;20037;-68
2023/09/24 17:59:15;;;;;;;6.68;1.88;;;;;;;17.28;78.74;102492.00;10444813;28;20263;-66
2023/09/24 18:04:36;;;;;;;6.15;2.22;;;;;;;17.22;78.20;102486.09;10448293;28;20051;-68
2023/09/24 18:09:58;;;;;;;3.63;1.90;;;;;;;17.16;78.82;102496.75;10427801;28;20509;-68
2023/09/24 18:15:22;;;;;;;3.78;2.15;;;;;;;17.10;78.49;102503.88;10430873;28;20037;-68
2023/09/24 18:20:44;;;;;;;4.45;1.67;;;;;;;17.04;78.59;102505.81;10446169;28;20098;-68
2023/09/24 18:26:06;;;;;;;3.55;1.40;;;;;;;16.98;79.15;102509.47;10429327;28;20037;-68
2023/09/24 18:31:27;;;;;;;5.90;1.98;;;;;;;16.90;77.54;102506.22;10447074;28;20497;-68
2023/09/24 18:36:49;;;;;;;3.25;1.80;;;;;;;16.86;79.00;102511.59;10430779;28;20045;-68
2023/09/24 18:42:11;;;;;;;3.35;1.70;;;;;;;16.78;79.38;102524.88;10427962;28;20051;-68
2023/09/24 18:47:32;;;;;;;4.55;2.10;;;;;;;16.71;79.85;102510.28;10425566;28;20060;-68
2023/09/24 18:52:54;;;;;;;4.63;1.80;;;;;;;16.66;79.83;102524.38;10427768;28;20135;-68
2023/09/24 18:58:15;;;;;;;5.93;2.13;;;;;;;16.59;79.99;102531.50;10428689;28;20140;-68
2023/09/24 19:03:37;;;;;;;6.53;2.00;;;;;;;16.57;79.46;102538.53;10426353;28;20040;-67
2023/09/24 19:08:59;;;;;;;8.40;2.25;;;;;;;16.48;78.98;102532.72;10441328;28;20045;-68
2023/09/24 19:14:21;;;;;;;4.50;1.90;;;;;;;16.39;79.71;102515.47;10442354;28;20049;-68
2023/09/24 19:19:42;;;;;;;5.03;2.05;;;;;;;16.34;79.95;102511.28;10427821;28;20523;-68
2023/09/24 19:25:05;;;;;;;5.13;2.00;;;;;;;16.29;80.32;102515.78;10429645;28;20130;-68
2023/09/24 19:30:28;;;;;;;4.38;1.75;;;;;;;16.22;80.45;102515.09;10441687;28;20068;-68
2023/09/24 19:35:49;;;;;;;4.03;1.90;;;;;;;16.14;80.58;102514.44;10435261;28;20045;-68
2023/09/24 19:41:13;;;;;;;5.53;2.10;;;;;;;16.05;79.92;102509.44;10433677;28;20562;-68
2023/09/24 19:46:35;;;;;;;4.28;2.22;;;;;;;15.96;80.33;102499.22;10422183;28;20783;-68
2023/09/24 19:51:57;;;;;;;4.97;2.20;;;;;;;15.96;80.38;102507.94;10435655;28;20179;-68
2023/09/24 19:57:18;;;;;;;5.68;2.10;;;;;;;15.90;80.55;102512.44;10436533;28;20922;-68
2023/09/24 20:02:40;;;;;;;5.10;2.25;;;;;;;15.84;80.34;102503.00;10431480;28;20055;-68
2023/09/24 20:08:03;;;;;;;3.75;2.10;;;;;;;15.81;80.22;102497.00;10435878;28;20041;-68
2023/09/24 20:13:25;;;;;;;7.15;2.25;;;;;;;15.75;79.95;102492.78;10434701;28;20052;-68
2023/09/24 20:18:46;;;;;;;6.00;2.10;;;;;;;15.68;80.19;102491.22;10446300;28;20044;-68
2023/09/24 20:24:12;;;;;;;4.60;2.20;;;;;;;15.62;80.36;102480.09;10449702;28;20068;-68
2023/09/24 20:29:41;;;;;;;7.90;2.10;;;;;;;15.55;79.99;102470.66;10442885;28;20053;-68
2023/09/24 20:35:03;;;;;;;3.15;1.83;;;;;;;15.53;80.38;102464.66;10432662;28;20045;-68
2023/09/24 20:40:25;;;;;;;4.50;2.22;;;;;;;15.50;80.35;102469.94;10432543;28;20056;-67
2023/09/24 20:45:56;;;;;;;4.70;1.92;;;;;;;15.44;79.98;102459.66;10449362;28;20055;-67
2023/09/24 20:51:18;;;;;;;7.50;1.90;;;;;;;15.38;80.27;102459.75;10434808;28;20053;-67
2023/09/24 20:56:39;;;;;;;6.10;1.90;;;;;;;15.37;80.79;102466.72;10446964;28;20041;-67
2023/09/24 21:02:01;;;;;;;4.55;1.83;;;;;;;15.36;78.96;102461.56;10434727;28;20049;-67
2023/09/24 21:07:25;;;;;;;2.95;1.70;;;;;;;15.37;79.68;102458.03;10446474;28;20045;-67
2023/09/24 21:12:47;;;;;;;4.47;1.50;;;;;;;15.37;78.40;102450.19;10447894;28;20386;-67
2023/09/24 21:18:08;;;;;;;2.10;1.40;;;;;;;15.35;77.71;102433.72;10437358;28;20401;-67
2023/09/24 21:23:30;;;;;;;3.83;1.60;;;;;;;15.30;77.63;102443.41;10427594;28;20053;-67
2023/09/24 21:28:52;;;;;;;4.80;1.55;;;;;;;15.30;77.18;102433.84;10431017;28;20460;-67
2023/09/24 21:34:14;;;;;;;2.15;1.33;;;;;;;15.34;76.76;102429.41;10428434;28;20045;-68
2023/09/24 21:39:36;;;;;;;6.25;1.30;;;;;;;15.34;77.57;102426.81;10432791;28;20045;-67
2023/09/24 21:45:00;;;;;;;3.88;1.20;;;;;;;15.35;76.73;102431.13;10429609;28;20488;-67
2023/09/24 21:50:22;;;;;;;3.63;1.38;;;;;;;15.29;76.18;102423.47;10447480;28;20045;-67
2023/09/24 21:55:46;;;;;;;4.03;1.25;;;;;;;15.22;76.75;102411.47;10430644;28;20049;-67
2023/09/24 22:01:14;;;;;;;1.88;1.30;;;;;;;15.21;76.28;102413.22;10426448;28;20033;-67
2023/09/24 22:06:35;;;;;;;3.30;1.08;;;;;;;15.18;76.61;102409.81;10419106;28;20128;-68
2023/09/24 22:11:57;;;;;;;2.38;1.20;;;;;;;15.13;76.36;102402.09;10435931;28;20049;-67
2023/09/24 22:17:19;;;;;;;2.80;1.20;;;;;;;15.16;77.09;102407.25;10445929;28;20710;-66
2023/09/24 22:22:41;;;;;;;3.78;1.20;;;;;;;15.14;76.64;102398.59;10431066;28;20044;-67
2023/09/24 22:28:03;;;;;;;1.85;1.05;;;;;;;15.11;75.84;102398.66;10425387;28;20044;-67
2023/09/24 22:33:25;;;;;;;3.63;1.20;;;;;;;15.13;76.44;102397.75;10420724;28;20061;-67
2023/09/24 22:38:46;;;;;;;3.17;1.17;;;;;;;15.10;77.10;102397.81;10428593;28;20409;-68
2023/09/24 22:44:09;;;;;;;2.72;1.17;;;;;;;15.06;76.46;102393.56;10411185;28;20052;-67
2023/09/24 22:49:30;;;;;;;3.92;1.23;;;;;;;15.03;75.57;102388.41;10426603;28;20057;-67
2023/09/24 22:54:52;;;;;;;4.20;1.27;;;;;;;15.01;77.13;102386.75;10435379;28;20045;-67
2023/09/24 23:00:18;;;;;;;2.15;1.40;;;;;;;14.98;76.65;102382.44;10437154;28;20487;-67
2023/09/24 23:05:40;;;;;;;1.85;1.02;;;;;;;14.95;77.19;102382.53;10431862;28;20492;-65
2023/09/24 23:11:02;;;;;;;2.33;1.10;;;;;;;14.87;76.47;102374.00;10446119;28;20203;-66
2023/09/24 23:16:24;;;;;;;1.92;1.20;;;;;;;14.81;76.64;102384.59;10426941;28;20045;-68
2023/09/24 23:21:46;;;;;;;1.60;1.10;;;;;;;14.77;77.47;102382.94;10435600;28;20045;-67
2023/09/24 23:27:08;;;;;;;3.75;1.30;;;;;;;14.70;77.77;102370.94;10433706;28;20051;-68
2023/09/24 23:32:30;;;;;;;2.10;1.20;;;;;;;14.67;77.91;102368.38;10426754;28;20449;-68
2023/09/24 23:37:52;;;;;;;5.25;1.48;;;;;;;14.70;78.04;102370.94;10439973;28;20041;-68
2023/09/24 23:43:15;;;;;;;2.15;1.33;;;;;;;14.72;78.08;102376.13;10421294;28;20080;-67
2023/09/24 23:48:37;;;;;;;2.40;1.50;;;;;;;14.67;77.69;102378.81;10438409;28;20927;-67
2023/09/24 23:54:03;;;;;;;1.67;1.50;;;;;;;14.62;78.19;102378.06;10424331;28;20167;-68
2023/09/24 23:59:25;;;;;;;2.60;1.20;;;;;;;14.58;78.79;102385.97;10423935;28;20064;-67
